Time;durP1;ratioP1;P1;durP2;ratioP2;P2;SDS_P1;SDS_P2;PMS_P1;PMS_P2;Temp;Humidity;BMP_temperature;BMP_pressure;BME280_temperature;BME280_humidity;BME280_pressure;Samples;Min_cycle;Max_cycle;Signal;HPM_P1;HPM_P2
2020/12/12 00:01:33;;;;;;;0.00;0.00;;;;;;;;;;4922472;28;20051;-66
2020/12/12 00:03:59;;;;;;;0.90;0.90;;;;;;;;;;4923847;28;20585;-67
2020/12/12 00:06:25;;;;;;;0.17;0.17;;;;;;;;;;4926885;28;20342;-68
2020/12/12 00:08:50;;;;;;;3.17;1.02;;;;;;;;;;4906344;28;20039;-68
2020/12/12 00:11:17;;;;;;;0.60;0.60;;;;;;;;;;4925031;28;20111;-68
2020/12/12 00:13:48;;;;;;;0.05;0.05;;;;;;;;;;4926228;28;20583;-67
2020/12/12 00:16:16;;;;;;;0.00;0.00;;;;;;;;;;4925299;28;20028;-67
2020/12/12 00:18:44;;;;;;;0.85;0.85;;;;;;;;;;4905764;28;20065;-66
2020/12/12 00:21:13;;;;;;;1.65;1.48;;;;;;;;;;4921957;28;20371;-67
2020/12/12 00:23:41;;;;;;;0.80;0.80;;;;;;;;;;4925119;28;20131;-67
2020/12/12 00:26:09;;;;;;;0.00;0.00;;;;;;;;;;4922420;28;20455;-66
2020/12/12 00:28:37;;;;;;;0.52;0.52;;;;;;;;;;4926185;28;20069;-66
2020/12/12 00:31:08;;;;;;;0.10;0.10;;;;;;;;;;4908091;28;20051;-66
2020/12/12 00:33:50;;;;;;;0.17;0.17;;;;;;;;;;4893623;29;20579;-65
2020/12/12 00:36:16;;;;;;;0.38;0.38;;;;;;;;;;4893674;29;20068;-65
2020/12/12 00:38:42;;;;;;;0.10;0.10;;;;;;;;;;4894055;29;20050;-65
2020/12/12 00:41:09;;;;;;;0.00;0.00;;;;;;;;;;4893871;29;20032;-65
2020/12/12 00:43:37;;;;;;;0.75;0.75;;;;;;;;;;4895135;29;20108;-68
2020/12/12 00:46:06;;;;;;;0.75;0.75;;;;;;;;;;4894782;29;20253;-67
2020/12/12 00:48:36;;;;;;;0.65;0.65;;;;;;;;;;4892803;29;20098;-66
2020/12/12 00:51:04;;;;;;;0.38;0.38;;;;;;;;;;4891563;29;20147;-66
2020/12/12 00:53:30;;;;;;;0.00;0.00;;;;;;;;;;4893351;29;21685;-64
2020/12/12 00:56:00;;;;;;;1.20;1.17;;;;;;;;;;4894052;29;20674;-64
2020/12/12 00:58:30;;;;;;;0.00;0.00;;;;;;;;;;4880366;29;20075;-65
2020/12/12 01:00:58;;;;;;;0.15;0.15;;;;;;;;;;4892385;29;20040;-64
2020/12/12 01:03:26;;;;;;;0.10;0.10;;;;;;;;;;4893755;29;20111;-66
2020/12/12 01:05:52;;;;;;;0.10;0.10;;;;;;;;;;4920060;28;20061;-63
2020/12/12 01:08:22;;;;;;;4.22;1.85;;;;;;;;;;4925238;28;20436;-64
2020/12/12 01:10:47;;;;;;;0.22;0.22;;;;;;;;;;4923266;28;20043;-65
2020/12/12 01:13:16;;;;;;;0.80;0.80;;;;;;;;;;4926627;28;20082;-64
2020/12/12 01:15:43;;;;;;;0.28;0.28;;;;;;;;;;4921966;28;20241;-62
2020/12/12 01:18:11;;;;;;;0.55;0.55;;;;;;;;;;4924200;28;20055;-64
2020/12/12 01:20:39;;;;;;;0.40;0.35;;;;;;;;;;4905967;28;20141;-64
2020/12/12 01:23:07;;;;;;;0.00;0.00;;;;;;;;;;4906162;28;20079;-63
2020/12/12 01:25:37;;;;;;;1.45;1.35;;;;;;;;;;4906722;28;20035;-66
2020/12/12 01:28:05;;;;;;;0.85;0.68;;;;;;;;;;4922723;28;20502;-66
2020/12/12 01:30:35;;;;;;;0.38;0.38;;;;;;;;;;4924249;28;20488;-66
2020/12/12 01:33:03;;;;;;;2.50;2.03;;;;;;;;;;4921403;28;20585;-64
2020/12/12 01:38:19;;;;;;;2.92;1.45;;;;;;;;;;4924090;28;21900;-63
2020/12/12 01:40:52;;;;;;;1.45;1.35;;;;;;;;;;4905317;28;20262;-64
2020/12/12 01:43:18;;;;;;;0.52;0.52;;;;;;;;;;4924777;28;20141;-65
2020/12/12 01:45:43;;;;;;;1.85;1.75;;;;;;;;;;4919454;28;20486;-65
2020/12/12 01:48:11;;;;;;;0.25;0.25;;;;;;;;;;4922889;28;20566;-63
2020/12/12 01:50:39;;;;;;;1.13;1.02;;;;;;;;;;4921521;28;20518;-65
2020/12/12 01:53:05;;;;;;;0.63;0.63;;;;;;;;;;4920565;28;20031;-64
2020/12/12 01:55:34;;;;;;;0.30;0.30;;;;;;;;;;4922960;28;20067;-65
2020/12/12 01:58:02;;;;;;;0.55;0.55;;;;;;;;;;4923071;28;20140;-65
2020/12/12 02:00:27;;;;;;;1.25;1.20;;;;;;;;;;4925424;28;20039;-65
2020/12/12 02:02:57;;;;;;;0.00;0.00;;;;;;;;;;4921531;28;20032;-65
2020/12/12 02:05:45;;;;;;;0.68;0.68;;;;;;;;;;4922755;28;20399;-66
2020/12/12 02:08:11;;;;;;;0.50;0.50;;;;;;;;;;4922272;28;20042;-63
2020/12/12 02:10:41;;;;;;;0.10;0.10;;;;;;;;;;4921533;28;20166;-64
2020/12/12 02:13:07;;;;;;;1.35;0.75;;;;;;;;;;4912330;28;20412;-66
2020/12/12 02:15:33;;;;;;;0.50;0.50;;;;;;;;;;4923676;28;20107;-64
2020/12/12 02:18:03;;;;;;;0.00;0.00;;;;;;;;;;4917527;28;20319;-65
2020/12/12 02:20:31;;;;;;;0.20;0.20;;;;;;;;;;4917402;28;20112;-64
2020/12/12 02:22:57;;;;;;;0.03;0.03;;;;;;;;;;4904770;28;20389;-65
2020/12/12 02:25:28;;;;;;;0.10;0.10;;;;;;;;;;4902818;28;20215;-64
2020/12/12 02:27:57;;;;;;;1.52;0.75;;;;;;;;;;4924352;28;20050;-64
2020/12/12 02:30:29;;;;;;;0.10;0.10;;;;;;;;;;4907328;28;20057;-63
2020/12/12 02:32:54;;;;;;;0.95;0.95;;;;;;;;;;4906491;28;20038;-63
2020/12/12 02:35:19;;;;;;;0.40;0.40;;;;;;;;;;4920529;28;20091;-64
2020/12/12 02:37:45;;;;;;;0.00;0.00;;;;;;;;;;4921508;28;20336;-64
2020/12/12 02:40:13;;;;;;;0.52;0.52;;;;;;;;;;4919739;28;20111;-64
2020/12/12 02:42:41;;;;;;;0.85;0.85;;;;;;;;;;4920322;28;20383;-65
2020/12/12 02:45:09;;;;;;;0.28;0.28;;;;;;;;;;4922603;28;20047;-64
2020/12/12 02:47:37;;;;;;;0.47;0.47;;;;;;;;;;4907110;28;20030;-64
2020/12/12 02:50:09;;;;;;;0.40;0.40;;;;;;;;;;4906883;28;20150;-64
2020/12/12 02:52:40;;;;;;;0.00;0.00;;;;;;;;;;4923360;28;20439;-64
2020/12/12 02:55:08;;;;;;;0.00;0.00;;;;;;;;;;4908434;28;20031;-63
2020/12/12 02:57:36;;;;;;;0.32;0.32;;;;;;;;;;4926107;28;20031;-65
2020/12/12 03:00:05;;;;;;;0.08;0.08;;;;;;;;;;4924299;28;20035;-64
2020/12/12 03:02:33;;;;;;;0.38;0.38;;;;;;;;;;4921802;28;20023;-65
2020/12/12 03:04:59;;;;;;;0.25;0.25;;;;;;;;;;4905559;28;20028;-65
2020/12/12 03:07:25;;;;;;;1.35;1.35;;;;;;;;;;4927141;28;20031;-64
2020/12/12 03:09:52;;;;;;;0.45;0.45;;;;;;;;;;4928239;28;20073;-64
2020/12/12 03:12:18;;;;;;;1.08;0.98;;;;;;;;;;4925048;28;20042;-65
2020/12/12 03:14:43;;;;;;;0.08;0.08;;;;;;;;;;4924110;28;20054;-64
2020/12/12 03:17:09;;;;;;;3.60;1.02;;;;;;;;;;4926590;28;20046;-64
2020/12/12 03:19:37;;;;;;;6.63;2.58;;;;;;;;;;4926279;28;20349;-64
2020/12/12 03:22:06;;;;;;;0.13;0.13;;;;;;;;;;4907299;28;20550;-63
2020/12/12 03:24:34;;;;;;;0.45;0.45;;;;;;;;;;4927183;28;20158;-63
2020/12/12 03:27:00;;;;;;;1.80;1.15;;;;;;;;;;4927987;28;20386;-65
2020/12/12 03:29:26;;;;;;;0.25;0.25;;;;;;;;;;4926342;28;20585;-63
2020/12/12 03:31:54;;;;;;;0.65;0.65;;;;;;;;;;4926426;28;21655;-63
2020/12/12 03:34:22;;;;;;;1.77;1.48;;;;;;;;;;4923276;28;20046;-64
2020/12/12 03:36:50;;;;;;;1.55;1.25;;;;;;;;;;4921289;28;20051;-64
2020/12/12 03:39:18;;;;;;;0.22;0.22;;;;;;;;;;4927920;28;20103;-64
2020/12/12 03:41:46;;;;;;;0.10;0.10;;;;;;;;;;4928251;28;20198;-64
2020/12/12 03:44:12;;;;;;;1.17;1.15;;;;;;;;;;4922706;28;20171;-63
2020/12/12 03:46:37;;;;;;;0.00;0.00;;;;;;;;;;4907763;28;20605;-63
2020/12/12 03:49:02;;;;;;;0.13;0.13;;;;;;;;;;4911466;28;20043;-63
2020/12/12 03:51:28;;;;;;;0.00;0.00;;;;;;;;;;4909706;28;20380;-63
2020/12/12 03:53:58;;;;;;;0.17;0.17;;;;;;;;;;4907748;28;20511;-64
2020/12/12 03:56:26;;;;;;;0.10;0.10;;;;;;;;;;4923932;28;20051;-64
2020/12/12 03:58:55;;;;;;;0.28;0.28;;;;;;;;;;4909199;28;20027;-64
2020/12/12 04:01:25;;;;;;;0.00;0.00;;;;;;;;;;4925954;28;20579;-64
2020/12/12 04:03:53;;;;;;;0.20;0.20;;;;;;;;;;4924344;28;20690;-64
2020/12/12 04:06:21;;;;;;;0.05;0.05;;;;;;;;;;4927663;28;20119;-65
2020/12/12 04:08:49;;;;;;;1.88;1.67;;;;;;;;;;4928293;28;20131;-63
2020/12/12 04:11:19;;;;;;;0.85;0.85;;;;;;;;;;4926845;28;20070;-63
2020/12/12 04:13:45;;;;;;;0.30;0.20;;;;;;;;;;4906795;28;20140;-64
2020/12/12 04:16:10;;;;;;;1.73;1.52;;;;;;;;;;4926148;28;20035;-64
2020/12/12 04:18:36;;;;;;;1.92;1.75;;;;;;;;;;4926116;28;20487;-62
2020/12/12 04:21:04;;;;;;;0.25;0.25;;;;;;;;;;4926769;28;20459;-63
2020/12/12 04:23:32;;;;;;;1.38;1.27;;;;;;;;;;4922728;28;20260;-65
2020/12/12 04:25:57;;;;;;;0.10;0.10;;;;;;;;;;4908980;28;20031;-64
2020/12/12 04:28:23;;;;;;;3.22;1.92;;;;;;;;;;4927809;28;20532;-64
2020/12/12 04:30:51;;;;;;;0.30;0.30;;;;;;;;;;4925960;28;21538;-64
2020/12/12 04:33:19;;;;;;;0.40;0.40;;;;;;;;;;4926654;28;20098;-64
2020/12/12 04:35:44;;;;;;;0.00;0.00;;;;;;;;;;4908144;28;20125;-66
2020/12/12 04:38:13;;;;;;;0.43;0.43;;;;;;;;;;4922270;28;20460;-64
2020/12/12 04:40:43;;;;;;;0.25;0.25;;;;;;;;;;4925520;28;20514;-63
2020/12/12 04:43:11;;;;;;;0.38;0.38;;;;;;;;;;4922988;28;20735;-64
2020/12/12 04:45:42;;;;;;;1.60;1.52;;;;;;;;;;4921230;28;20106;-64
2020/12/12 04:48:08;;;;;;;1.23;1.13;;;;;;;;;;4923251;28;20118;-65
2020/12/12 04:50:35;;;;;;;1.30;1.27;;;;;;;;;;4924142;28;21656;-65
2020/12/12 04:53:14;;;;;;;0.00;0.00;;;;;;;;;;4909025;28;20053;-66
2020/12/12 04:55:46;;;;;;;0.20;0.20;;;;;;;;;;4923671;28;20141;-66
2020/12/12 04:58:18;;;;;;;0.32;0.32;;;;;;;;;;4910598;28;20024;-67
2020/12/12 05:00:46;;;;;;;;;;;;;;;;;;4923972;28;20070;-65
2020/12/12 05:03:13;;;;;;;0.00;0.00;;;;;;;;;;4926973;28;20037;-65
2020/12/12 05:05:42;;;;;;;0.20;0.20;;;;;;;;;;4923205;28;20102;-65
2020/12/12 05:08:08;;;;;;;1.13;0.93;;;;;;;;;;4908921;28;20626;-65
2020/12/12 05:10:38;;;;;;;1.40;1.35;;;;;;;;;;4908665;28;20126;-66
2020/12/12 05:13:12;;;;;;;0.52;0.52;;;;;;;;;;4924133;28;20027;-66
2020/12/12 05:15:41;;;;;;;0.10;0.10;;;;;;;;;;4924511;28;20042;-65
2020/12/12 05:18:09;;;;;;;0.20;0.20;;;;;;;;;;4922311;28;20023;-66
2020/12/12 05:20:35;;;;;;;0.20;0.20;;;;;;;;;;4925602;28;20028;-66
2020/12/12 05:23:02;;;;;;;0.52;0.52;;;;;;;;;;4923011;28;20416;-66
2020/12/12 05:25:28;;;;;;;0.05;0.05;;;;;;;;;;4926513;28;20331;-66
2020/12/12 05:27:56;;;;;;;0.15;0.15;;;;;;;;;;4925702;28;20473;-66
2020/12/12 05:30:24;;;;;;;0.00;0.00;;;;;;;;;;4924793;28;20039;-66
2020/12/12 05:32:54;;;;;;;0.30;0.30;;;;;;;;;;4924642;28;20122;-65
2020/12/12 05:35:20;;;;;;;0.05;0.05;;;;;;;;;;4902421;28;20130;-66
2020/12/12 05:37:48;;;;;;;0.10;0.10;;;;;;;;;;4924627;28;20251;-67
2020/12/12 05:40:16;;;;;;;0.47;0.47;;;;;;;;;;4922317;28;20198;-67
2020/12/12 05:42:42;;;;;;;0.28;0.28;;;;;;;;;;4922765;28;20035;-67
2020/12/12 05:45:10;;;;;;;2.80;0.57;;;;;;;;;;4921887;28;20027;-66
2020/12/12 05:47:36;;;;;;;0.40;0.40;;;;;;;;;;4924340;28;20034;-66
2020/12/12 05:50:03;;;;;;;8.35;1.65;;;;;;;;;;4919136;28;20098;-66
2020/12/12 05:52:29;;;;;;;0.00;0.00;;;;;;;;;;4925864;28;20031;-66
2020/12/12 05:54:59;;;;;;;0.20;0.20;;;;;;;;;;4920504;28;20576;-66
2020/12/12 05:57:27;;;;;;;0.47;0.47;;;;;;;;;;4921087;28;20840;-66
2020/12/12 05:59:59;;;;;;;1.15;1.15;;;;;;;;;;4921754;28;20286;-66
2020/12/12 06:02:25;;;;;;;0.03;0.03;;;;;;;;;;4925460;28;20119;-66
2020/12/12 06:04:53;;;;;;;1.13;1.13;;;;;;;;;;4905667;28;20380;-66
2020/12/12 06:07:33;;;;;;;0.10;0.10;;;;;;;;;;4923103;28;20574;-65
2020/12/12 06:10:07;;;;;;;0.10;0.10;;;;;;;;;;4907081;28;20070;-65
2020/12/12 06:12:34;;;;;;;0.00;0.00;;;;;;;;;;4922341;28;20165;-65
2020/12/12 06:15:02;;;;;;;0.28;0.28;;;;;;;;;;4904299;28;20023;-66
2020/12/12 06:17:48;;;;;;;0.35;0.35;;;;;;;;;;4925457;28;20147;-64
2020/12/12 06:20:22;;;;;;;0.20;0.20;;;;;;;;;;4906484;28;20038;-67
2020/12/12 06:22:51;;;;;;;0.15;0.15;;;;;;;;;;4922731;28;20031;-67
2020/12/12 06:25:21;;;;;;;0.25;0.25;;;;;;;;;;4923738;28;20049;-66
2020/12/12 06:27:48;;;;;;;0.00;0.00;;;;;;;;;;4926275;28;20039;-66
2020/12/12 06:30:16;;;;;;;0.00;0.00;;;;;;;;;;4929734;28;20153;-66
2020/12/12 06:32:42;;;;;;;0.15;0.15;;;;;;;;;;4926251;28;20035;-67
2020/12/12 06:35:10;;;;;;;0.10;0.10;;;;;;;;;;4907608;28;21139;-67
2020/12/12 06:37:38;;;;;;;0.00;0.00;;;;;;;;;;4923440;28;20087;-65
2020/12/12 06:40:10;;;;;;;0.65;0.57;;;;;;;;;;4910365;28;21373;-66
2020/12/12 06:42:44;;;;;;;1.10;1.02;;;;;;;;;;4905451;28;21602;-66
2020/12/12 06:45:19;;;;;;;4.03;1.85;;;;;;;;;;4927461;28;20511;-66
2020/12/12 06:47:44;;;;;;;;;;;;;;;;;;4929912;28;20133;-65
2020/12/12 06:50:13;;;;;;;0.10;0.10;;;;;;;;;;4928525;28;19918;-65
2020/12/12 06:52:39;;;;;;;1.13;1.05;;;;;;;;;;4927031;28;20702;-66
2020/12/12 06:55:05;;;;;;;0.75;0.75;;;;;;;;;;4925422;28;20085;-66
2020/12/12 07:00:17;;;;;;;1.63;1.52;;;;;;;;;;4924942;28;20122;-65
2020/12/12 07:03:04;;;;;;;0.52;0.52;;;;;;;;;;4925696;28;20043;-65
2020/12/12 07:05:35;;;;;;;0.95;0.95;;;;;;;;;;4927038;28;20129;-66
2020/12/12 07:08:10;;;;;;;0.25;0.25;;;;;;;;;;4924935;28;20062;-65
2020/12/12 07:10:40;;;;;;;1.45;0.75;;;;;;;;;;4927680;28;20122;-67
2020/12/12 07:13:09;;;;;;;0.10;0.10;;;;;;;;;;4928377;28;20142;-65
2020/12/12 07:15:40;;;;;;;0.32;0.32;;;;;;;;;;4908568;28;20046;-65
2020/12/12 07:18:10;;;;;;;0.60;0.60;;;;;;;;;;4910995;28;20106;-66
2020/12/12 07:20:39;;;;;;;0.35;0.35;;;;;;;;;;4924938;28;20078;-65
2020/12/12 07:23:11;;;;;;;0.47;0.47;;;;;;;;;;4925896;28;20035;-66
2020/12/12 07:25:44;;;;;;;0.80;0.80;;;;;;;;;;4927642;28;20143;-66
2020/12/12 07:28:13;;;;;;;5.32;1.45;;;;;;;;;;4923841;28;20615;-66
2020/12/12 07:30:38;;;;;;;0.77;0.77;;;;;;;;;;4922827;28;20556;-65
2020/12/12 07:33:04;;;;;;;2.00;0.25;;;;;;;;;;4923662;28;20039;-66
2020/12/12 07:35:30;;;;;;;0.35;0.35;;;;;;;;;;4907489;28;20079;-66
2020/12/12 07:38:03;;;;;;;0.40;0.40;;;;;;;;;;4909834;28;20106;-66
2020/12/12 07:40:35;;;;;;;0.20;0.20;;;;;;;;;;4918789;28;20071;-66
2020/12/12 07:43:04;;;;;;;0.20;0.20;;;;;;;;;;4926013;28;20364;-67
2020/12/12 07:45:51;;;;;;;0.08;0.08;;;;;;;;;;4925865;28;20174;-67
2020/12/12 07:48:17;;;;;;;0.43;0.43;;;;;;;;;;4911351;28;20787;-66
2020/12/12 07:50:43;;;;;;;0.60;0.60;;;;;;;;;;4907496;28;20070;-67
2020/12/12 07:53:12;;;;;;;1.25;0.38;;;;;;;;;;4910115;28;20048;-65
2020/12/12 07:55:42;;;;;;;4.95;3.10;;;;;;;;;;4920263;28;20094;-66
2020/12/12 07:58:16;;;;;;;1.88;1.10;;;;;;;;;;4926179;28;20035;-67
2020/12/12 08:00:44;;;;;;;0.63;0.40;;;;;;;;;;4909154;28;20039;-65
2020/12/12 08:03:10;;;;;;;0.10;0.10;;;;;;;;;;4924300;28;20027;-66
2020/12/12 08:05:36;;;;;;;0.52;0.52;;;;;;;;;;4910243;28;20042;-66
2020/12/12 08:08:11;;;;;;;0.30;0.30;;;;;;;;;;4926020;28;20027;-67
2020/12/12 08:10:38;;;;;;;0.10;0.10;;;;;;;;;;4927050;28;20071;-66
2020/12/12 08:13:09;;;;;;;0.15;0.15;;;;;;;;;;4910729;28;20042;-65
2020/12/12 08:15:46;;;;;;;0.00;0.00;;;;;;;;;;4906007;28;20031;-66
2020/12/12 08:18:14;;;;;;;0.10;0.10;;;;;;;;;;4924165;28;20612;-66
2020/12/12 08:20:42;;;;;;;2.63;1.02;;;;;;;;;;4925659;28;20026;-66
2020/12/12 08:23:14;;;;;;;0.05;0.05;;;;;;;;;;4917081;28;20036;-66
2020/12/12 08:25:41;;;;;;;0.05;0.05;;;;;;;;;;4924699;28;20654;-67
2020/12/12 08:28:10;;;;;;;0.45;0.45;;;;;;;;;;4908803;28;20031;-65
2020/12/12 08:30:38;;;;;;;0.75;0.75;;;;;;;;;;4923690;28;20854;-68
2020/12/12 08:33:11;;;;;;;1.65;1.55;;;;;;;;;;4926537;28;20023;-66
2020/12/12 08:35:39;;;;;;;0.13;0.13;;;;;;;;;;4926045;28;20088;-67
2020/12/12 08:38:06;;;;;;;0.68;0.68;;;;;;;;;;4925129;28;20526;-66
2020/12/12 08:40:33;;;;;;;0.77;0.77;;;;;;;;;;4927214;28;20035;-64
2020/12/12 08:43:05;;;;;;;0.00;0.00;;;;;;;;;;4925230;28;20407;-67
2020/12/12 08:45:33;;;;;;;1.73;1.63;;;;;;;;;;4924895;28;20049;-65
2020/12/12 08:48:00;;;;;;;0.65;0.65;;;;;;;;;;4923796;28;20049;-65
2020/12/12 08:50:31;;;;;;;0.00;0.00;;;;;;;;;;4922173;28;20316;-67
2020/12/12 08:52:57;;;;;;;2.20;0.90;;;;;;;;;;4924141;28;20046;-67
2020/12/12 08:55:25;;;;;;;0.10;0.10;;;;;;;;;;4923842;28;20027;-66
2020/12/12 08:58:01;;;;;;;0.00;0.00;;;;;;;;;;4924607;28;20242;-66
2020/12/12 09:00:31;;;;;;;0.20;0.20;;;;;;;;;;4922703;28;20113;-66
2020/12/12 09:03:01;;;;;;;0.50;0.50;;;;;;;;;;4910391;28;20141;-65
2020/12/12 09:05:36;;;;;;;6.90;2.33;;;;;;;;;;4926732;28;20039;-65
2020/12/12 09:08:20;;;;;;;0.90;0.65;;;;;;;;;;4925091;28;20035;-67
2020/12/12 09:10:46;;;;;;;0.28;0.28;;;;;;;;;;4921981;28;20463;-66
2020/12/12 09:13:14;;;;;;;1.45;1.15;;;;;;;;;;4920447;28;20046;-67
2020/12/12 09:15:43;;;;;;;0.05;0.05;;;;;;;;;;4918425;28;20064;-67
2020/12/12 09:18:11;;;;;;;1.75;0.98;;;;;;;;;;4920059;28;21751;-66
2020/12/12 09:20:36;;;;;;;0.00;0.00;;;;;;;;;;4921679;28;20063;-66
2020/12/12 09:23:07;;;;;;;0.68;0.68;;;;;;;;;;4907791;28;20115;-67
2020/12/12 09:25:32;;;;;;;1.75;1.65;;;;;;;;;;4893481;28;20435;-67
2020/12/12 09:28:00;;;;;;;0.55;0.55;;;;;;;;;;4907844;28;20035;-67
2020/12/12 09:30:28;;;;;;;0.13;0.13;;;;;;;;;;4908854;28;20687;-67
2020/12/12 09:32:54;;;;;;;0.93;0.90;;;;;;;;;;4906717;28;20206;-67
2020/12/12 09:35:21;;;;;;;0.60;0.60;;;;;;;;;;4907410;28;20210;-66
2020/12/12 09:37:47;;;;;;;9.10;0.82;;;;;;;;;;4922083;28;20036;-67
2020/12/12 09:40:15;;;;;;;8.98;1.25;;;;;;;;;;4924367;28;20042;-66
2020/12/12 09:42:40;;;;;;;0.68;0.68;;;;;;;;;;4922968;28;20034;-67
2020/12/12 09:45:05;;;;;;;0.43;0.43;;;;;;;;;;4923905;28;20083;-68
2020/12/12 09:47:31;;;;;;;0.30;0.30;;;;;;;;;;4922474;28;20335;-69
2020/12/12 09:49:57;;;;;;;0.08;0.08;;;;;;;;;;4924955;28;21658;-67
2020/12/12 09:52:25;;;;;;;2.55;2.35;;;;;;;;;;4925158;28;20027;-66
2020/12/12 09:54:53;;;;;;;0.00;0.00;;;;;;;;;;4920750;28;20143;-66
2020/12/12 09:57:24;;;;;;;0.00;0.00;;;;;;;;;;4907032;28;20570;-66
2020/12/12 09:59:49;;;;;;;0.75;0.75;;;;;;;;;;4920050;28;20371;-64
2020/12/12 10:02:15;;;;;;;0.30;0.30;;;;;;;;;;4923233;28;21575;-67
2020/12/12 10:04:43;;;;;;;0.00;0.00;;;;;;;;;;4919830;28;20660;-67
2020/12/12 10:07:09;;;;;;;0.32;0.32;;;;;;;;;;4923968;28;20054;-66
2020/12/12 10:09:34;;;;;;;0.22;0.22;;;;;;;;;;4922323;28;20098;-66
2020/12/12 10:12:02;;;;;;;0.20;0.20;;;;;;;;;;4917156;28;20260;-66
2020/12/12 10:14:30;;;;;;;0.60;0.60;;;;;;;;;;4922869;28;20501;-67
2020/12/12 10:16:56;;;;;;;1.50;1.27;;;;;;;;;;4928440;28;20047;-66
2020/12/12 10:19:25;;;;;;;0.10;0.10;;;;;;;;;;4928796;28;20067;-66
2020/12/12 10:21:53;;;;;;;0.40;0.40;;;;;;;;;;4927431;28;20317;-65
2020/12/12 10:24:18;;;;;;;0.30;0.30;;;;;;;;;;4913950;28;20050;-67
2020/12/12 10:26:47;;;;;;;0.28;0.28;;;;;;;;;;4912169;28;21705;-67
2020/12/12 10:29:15;;;;;;;0.65;0.65;;;;;;;;;;4925960;28;20047;-66
2020/12/12 10:31:42;;;;;;;2.58;1.58;;;;;;;;;;4923521;28;20517;-66
2020/12/12 10:34:10;;;;;;;0.32;0.32;;;;;;;;;;4923472;28;20051;-67
2020/12/12 10:36:40;;;;;;;0.00;0.00;;;;;;;;;;4923994;28;20056;-67
2020/12/12 10:39:06;;;;;;;0.00;0.00;;;;;;;;;;4920847;28;20864;-67
2020/12/12 10:41:31;;;;;;;0.20;0.20;;;;;;;;;;4914999;28;20023;-67
2020/12/12 10:43:59;;;;;;;0.65;0.65;;;;;;;;;;4923881;28;20234;-67
2020/12/12 10:46:24;;;;;;;0.13;0.13;;;;;;;;;;4917983;28;20456;-66
2020/12/12 10:48:53;;;;;;;1.85;1.65;;;;;;;;;;4912800;28;20507;-66
2020/12/12 10:51:19;;;;;;;2.28;1.08;;;;;;;;;;4924323;28;20616;-66
2020/12/12 10:53:45;;;;;;;0.22;0.17;;;;;;;;;;4928476;28;20046;-68
2020/12/12 10:56:12;;;;;;;0.20;0.20;;;;;;;;;;4909822;28;20042;-68
2020/12/12 10:58:41;;;;;;;0.40;0.40;;;;;;;;;;4922978;28;20248;-68
2020/12/12 11:01:06;;;;;;;0.20;0.20;;;;;;;;;;4905989;28;20053;-68
2020/12/12 11:03:34;;;;;;;0.15;0.15;;;;;;;;;;4904117;28;20403;-67
2020/12/12 11:06:02;;;;;;;0.32;0.32;;;;;;;;;;4905623;28;20043;-68
2020/12/12 11:08:31;;;;;;;0.65;0.65;;;;;;;;;;4923548;28;21158;-68
2020/12/12 11:10:57;;;;;;;4.95;1.40;;;;;;;;;;4921491;28;20046;-67
2020/12/12 11:13:23;;;;;;;0.50;0.40;;;;;;;;;;4926928;28;20483;-67
2020/12/12 11:15:48;;;;;;;0.65;0.65;;;;;;;;;;4925188;28;20046;-68
2020/12/12 11:18:19;;;;;;;0.38;0.38;;;;;;;;;;4928634;28;20047;-65
2020/12/12 11:20:46;;;;;;;0.40;0.40;;;;;;;;;;4909419;28;20035;-67
2020/12/12 11:23:11;;;;;;;0.20;0.20;;;;;;;;;;4924275;28;20479;-67
2020/12/12 11:25:37;;;;;;;0.60;0.60;;;;;;;;;;4921654;28;20062;-69
2020/12/12 11:28:02;;;;;;;0.52;0.52;;;;;;;;;;4927121;28;20658;-68
2020/12/12 11:30:29;;;;;;;0.30;0.30;;;;;;;;;;4910133;28;20043;-68
2020/12/12 11:32:54;;;;;;;0.13;0.13;;;;;;;;;;4909201;28;20537;-70
2020/12/12 11:35:29;;;;;;;0.80;0.80;;;;;;;;;;4918445;28;20134;-68
2020/12/12 11:38:22;;;;;;;0.65;0.65;;;;;;;;;;4907261;29;20527;-67
2020/12/12 11:41:08;;;;;;;0.00;0.00;;;;;;;;;;4908071;29;20032;-68
2020/12/12 11:48:50;;;;;;;0.55;0.55;;;;;;;;;;4889443;29;20488;-67
2020/12/12 11:51:19;;;;;;;0.30;0.30;;;;;;;;;;4907417;29;20115;-67
2020/12/12 11:53:45;;;;;;;0.88;0.88;;;;;;;;;;4908560;29;20480;-67
2020/12/12 11:56:16;;;;;;;1.02;0.93;;;;;;;;;;4889764;29;21002;-67
2020/12/12 11:58:46;;;;;;;0.47;0.47;;;;;;;;;;4905819;29;20046;-66
2020/12/12 12:01:17;;;;;;;0.77;0.77;;;;;;;;;;4906360;29;20488;-67
2020/12/12 12:03:42;;;;;;;0.32;0.32;;;;;;;;;;4905044;29;20615;-67
2020/12/12 12:06:08;;;;;;;1.10;1.10;;;;;;;;;;4906108;29;20263;-67
2020/12/12 12:08:47;;;;;;;2.80;2.10;;;;;;;;;;4905034;29;20151;-69
2020/12/12 12:11:29;;;;;;;0.55;0.55;;;;;;;;;;4890275;29;20432;-67
2020/12/12 12:13:57;;;;;;;0.32;0.32;;;;;;;;;;4908432;29;20126;-68
2020/12/12 12:16:24;;;;;;;0.00;0.00;;;;;;;;;;4905235;29;20539;-67
2020/12/12 12:18:52;;;;;;;4.18;1.45;;;;;;;;;;4905160;29;20028;-68
2020/12/12 12:21:21;;;;;;;0.47;0.47;;;;;;;;;;4890822;29;20094;-67
2020/12/12 12:23:49;;;;;;;2.00;1.15;;;;;;;;;;4887738;29;20150;-66
2020/12/12 12:26:17;;;;;;;0.17;0.17;;;;;;;;;;4905975;29;20090;-67
2020/12/12 12:28:42;;;;;;;0.70;0.70;;;;;;;;;;4905701;29;20640;-66
2020/12/12 12:31:08;;;;;;;0.10;0.10;;;;;;;;;;4888907;29;20122;-68
2020/12/12 12:33:33;;;;;;;0.00;0.00;;;;;;;;;;4891582;29;20048;-68
2020/12/12 12:35:59;;;;;;;0.22;0.22;;;;;;;;;;4912234;28;20319;-68
2020/12/12 12:38:25;;;;;;;0.38;0.30;;;;;;;;;;4925088;28;20529;-67
2020/12/12 12:40:53;;;;;;;0.00;0.00;;;;;;;;;;4926557;28;20490;-66
2020/12/12 12:43:19;;;;;;;1.17;0.98;;;;;;;;;;4922282;28;20106;-68
2020/12/12 12:45:56;;;;;;;0.47;0.47;;;;;;;;;;4923062;28;20114;-68
2020/12/12 12:48:24;;;;;;;0.03;0.03;;;;;;;;;;4922895;28;20035;-68
2020/12/12 12:50:49;;;;;;;3.38;2.58;;;;;;;;;;4921618;28;20311;-68
2020/12/12 12:53:15;;;;;;;0.45;0.45;;;;;;;;;;4924037;28;20253;-68
2020/12/12 12:55:40;;;;;;;2.17;0.90;;;;;;;;;;4920446;28;20044;-68
2020/12/12 12:58:09;;;;;;;0.15;0.15;;;;;;;;;;4918913;28;20810;-68
2020/12/12 13:00:37;;;;;;;3.28;1.23;;;;;;;;;;4906684;28;20644;-68
2020/12/12 13:03:03;;;;;;;0.85;0.70;;;;;;;;;;4914260;28;20060;-69
2020/12/12 13:05:31;;;;;;;0.60;0.60;;;;;;;;;;4919182;28;20684;-67
2020/12/12 13:07:56;;;;;;;0.32;0.32;;;;;;;;;;4922383;28;20074;-67
2020/12/12 13:10:21;;;;;;;0.17;0.17;;;;;;;;;;4923027;28;20039;-67
2020/12/12 13:12:47;;;;;;;0.30;0.30;;;;;;;;;;4922528;28;20043;-67
2020/12/12 13:15:15;;;;;;;0.93;0.93;;;;;;;;;;4925079;28;20046;-67
2020/12/12 13:17:41;;;;;;;0.55;0.55;;;;;;;;;;4922859;28;20090;-67
2020/12/12 13:22:47;;;;;;;1.13;1.13;;;;;;;;;;4917800;28;20040;-68
2020/12/12 13:25:14;;;;;;;0.25;0.25;;;;;;;;;;4906152;28;20050;-68
2020/12/12 13:27:41;;;;;;;0.57;0.57;;;;;;;;;;4922366;28;20090;-68
2020/12/12 13:30:16;;;;;;;5.00;2.10;;;;;;;;;;4921760;28;20246;-68
2020/12/12 13:32:47;;;;;;;0.75;0.75;;;;;;;;;;4906547;28;20031;-69
2020/12/12 13:35:14;;;;;;;3.30;2.30;;;;;;;;;;4921424;28;20087;-67
2020/12/12 13:37:40;;;;;;;0.22;0.22;;;;;;;;;;4924564;28;20059;-69
2020/12/12 13:40:07;;;;;;;0.63;0.63;;;;;;;;;;4923293;28;20039;-69
2020/12/12 13:42:36;;;;;;;2.20;1.02;;;;;;;;;;4925337;28;20349;-68
2020/12/12 13:45:06;;;;;;;1.45;1.25;;;;;;;;;;4921123;28;20035;-69
2020/12/12 13:47:34;;;;;;;1.35;1.08;;;;;;;;;;4923872;28;20242;-68
2020/12/12 13:50:02;;;;;;;0.52;0.52;;;;;;;;;;4906403;28;20023;-68
2020/12/12 13:52:28;;;;;;;0.22;0.22;;;;;;;;;;4924698;28;20027;-68
2020/12/12 13:55:00;;;;;;;1.40;1.35;;;;;;;;;;4916245;28;20128;-67
2020/12/12 13:57:28;;;;;;;0.22;0.22;;;;;;;;;;4924563;28;20034;-68
2020/12/12 13:59:59;;;;;;;3.78;2.53;;;;;;;;;;4923227;28;20031;-68
2020/12/12 14:02:24;;;;;;;0.10;0.10;;;;;;;;;;4909214;28;20053;-68
2020/12/12 14:04:53;;;;;;;0.30;0.30;;;;;;;;;;4920640;28;20027;-68
2020/12/12 14:07:29;;;;;;;0.03;0.03;;;;;;;;;;4918093;28;20498;-68
2020/12/12 14:10:17;;;;;;;0.25;0.25;;;;;;;;;;4906671;28;20463;-69
2020/12/12 14:21:16;;;;;;;0.57;0.57;;;;;;;;;;4918329;28;20095;-67
2020/12/12 14:23:44;;;;;;;2.55;1.67;;;;;;;;;;4904433;28;20152;-70
2020/12/12 14:28:42;;;;;;;1.58;0.70;;;;;;;;;;4923208;28;20133;-68
2020/12/12 14:31:07;;;;;;;0.00;0.00;;;;;;;;;;4907717;28;21936;-71
2020/12/12 14:33:32;;;;;;;0.17;0.17;;;;;;;;;;4922807;28;20046;-69
2020/12/12 14:36:01;;;;;;;2.08;1.15;;;;;;;;;;4906418;28;20343;-68
2020/12/12 14:38:29;;;;;;;1.95;0.75;;;;;;;;;;4921521;28;20049;-67
2020/12/12 14:40:58;;;;;;;2.80;2.13;;;;;;;;;;4908040;28;20150;-67
2020/12/12 14:43:23;;;;;;;0.55;0.55;;;;;;;;;;4923505;28;20172;-68
2020/12/12 14:45:51;;;;;;;0.00;0.00;;;;;;;;;;4922581;28;20407;-67
2020/12/12 14:48:19;;;;;;;0.88;0.52;;;;;;;;;;4921985;28;20046;-68
2020/12/12 14:50:47;;;;;;;0.20;0.20;;;;;;;;;;4924196;28;20087;-67
2020/12/12 14:53:18;;;;;;;1.98;1.40;;;;;;;;;;4912049;28;20509;-67
2020/12/12 14:55:44;;;;;;;0.68;0.68;;;;;;;;;;4925970;28;20376;-66
2020/12/12 14:58:09;;;;;;;2.10;1.70;;;;;;;;;;4925000;28;20419;-67
2020/12/12 15:00:38;;;;;;;0.05;0.05;;;;;;;;;;4924748;28;20185;-67
2020/12/12 15:03:05;;;;;;;0.93;0.93;;;;;;;;;;4909891;28;20523;-68
2020/12/12 15:05:32;;;;;;;0.70;0.70;;;;;;;;;;4907740;28;20098;-67
2020/12/12 15:08:00;;;;;;;3.13;0.85;;;;;;;;;;4923409;28;20035;-67
2020/12/12 15:10:27;;;;;;;0.55;0.28;;;;;;;;;;4922851;28;20039;-67
2020/12/12 15:12:53;;;;;;;0.28;0.28;;;;;;;;;;4924725;28;20039;-66
2020/12/12 15:15:21;;;;;;;1.42;0.70;;;;;;;;;;4925794;28;20549;-65